createdAt,value
2022-08-05T00:00:20.403Z,26.75
2022-08-05T00:02:51.486Z,26.74
2022-08-05T00:06:02.985Z,26.72
2022-08-05T00:08:32.588Z,26.66
2022-08-05T00:11:00.369Z,26.63
2022-08-05T00:13:38.208Z,26.62
2022-08-05T00:16:10.867Z,26.59
2022-08-05T00:18:40.008Z,26.59
2022-08-05T00:21:09.818Z,26.61
2022-08-05T00:23:45.731Z,26.61
2022-08-05T00:26:16.583Z,26.59
2022-08-05T00:28:45.788Z,26.58
2022-08-05T00:31:13.808Z,26.58
2022-08-05T00:34:54.484Z,26.57
2022-08-05T00:37:11.705Z,26.55
2022-08-05T00:39:15.361Z,26.56
2022-08-05T00:41:55.093Z,26.58
2022-08-05T00:44:30.904Z,26.59
2022-08-05T00:47:02.071Z,26.58
2022-08-05T00:49:32.807Z,26.55
2022-08-05T00:52:00.798Z,26.56
2022-08-05T00:54:30.089Z,26.57
2022-08-05T00:56:57.558Z,26.57
2022-08-05T00:59:24.786Z,26.57
2022-08-05T01:01:52.006Z,26.55
2022-08-05T01:04:20.140Z,26.54
2022-08-05T01:06:54.954Z,26.55
2022-08-05T01:09:22.834Z,26.57
2022-08-05T01:11:52.354Z,26.54
2022-08-05T01:14:46.015Z,26.50
2022-08-05T01:17:40.274Z,26.46
2022-08-05T01:20:14.116Z,26.39
2022-08-05T01:22:46.881Z,26.37
2022-08-05T01:25:40.106Z,26.38
2022-08-05T01:28:42.844Z,26.29
2022-08-05T01:31:16.488Z,26.17
2022-08-05T01:33:56.648Z,26.10
2022-08-05T01:36:29.692Z,26.04
2022-08-05T01:39:01.211Z,26.02
2022-08-05T01:41:33.835Z,25.99
2022-08-05T01:44:02.501Z,25.96
2022-08-05T01:46:42.767Z,25.94
2022-08-05T01:49:24.155Z,25.92
2022-08-05T01:52:01.354Z,25.90
2022-08-05T01:54:46.041Z,25.92
2022-08-05T01:58:10.897Z,25.92
2022-08-05T02:00:11.942Z,25.93
2022-08-05T02:02:54.905Z,25.95
2022-08-05T02:05:23.911Z,25.96
2022-08-05T02:08:00.383Z,26.00
2022-08-05T02:10:51.306Z,26.01
2022-08-05T02:13:36.435Z,26.00
2022-08-05T02:16:30.675Z,26.01
2022-08-05T02:19:01.439Z,26.00
2022-08-05T02:21:43.361Z,26.00
2022-08-05T02:24:19.486Z,26.01
2022-08-05T02:27:00.541Z,26.01
2022-08-05T02:29:58.864Z,26.01
2022-08-05T02:32:31.608Z,25.99
2022-08-05T02:35:14.108Z,26.00
2022-08-05T02:37:53.800Z,25.98
2022-08-05T02:40:23.164Z,25.93
2022-08-05T02:42:54.085Z,25.89
2022-08-05T02:45:25.276Z,25.91
2022-08-05T02:48:07.389Z,25.93
2022-08-05T02:50:46.824Z,25.94
2022-08-05T02:53:19.457Z,25.90
2022-08-05T02:55:59.584Z,25.94
2022-08-05T02:58:28.871Z,25.95
2022-08-05T03:01:01.842Z,25.96
2022-08-05T03:03:33.726Z,25.96
2022-08-05T03:06:54.785Z,25.96
2022-08-05T03:09:07.769Z,25.94
2022-08-05T03:11:55.351Z,25.92
2022-08-05T03:14:22.527Z,25.90
2022-08-05T03:16:49.805Z,25.88
2022-08-05T03:19:34.082Z,25.88
2022-08-05T03:22:04.849Z,25.87
2022-08-05T03:24:47.288Z,25.88
2022-08-05T03:27:19.279Z,25.88
2022-08-05T03:30:08.111Z,25.89
2022-08-05T03:32:34.991Z,25.88
2022-08-05T03:35:04.524Z,25.88
2022-08-05T03:37:46.629Z,25.89
2022-08-05T03:40:15.554Z,25.88
2022-08-05T03:42:52.884Z,25.88
2022-08-05T03:45:21.575Z,25.86
2022-08-05T03:47:50.963Z,25.85
2022-08-05T03:50:18.481Z,25.82
2022-08-05T03:55:00.072Z,25.80
2022-08-05T03:56:10.875Z,25.79
2022-08-05T03:58:47.233Z,25.77
2022-08-05T04:01:18.566Z,25.74
2022-08-05T04:04:09.769Z,25.73
2022-08-05T04:06:38.119Z,25.73
2022-08-05T04:09:10.379Z,25.74
2022-08-05T04:11:47.713Z,25.76
2022-08-05T04:14:29.541Z,25.76
2022-08-05T04:16:59.956Z,25.77
2022-08-05T04:19:28.965Z,25.79
2022-08-05T04:22:08.506Z,25.82
2022-08-05T04:24:44.480Z,25.86
2022-08-05T04:27:13.743Z,25.89
2022-08-05T04:29:41.760Z,25.96
2022-08-05T04:32:09.856Z,26.03
2022-08-05T04:34:42.632Z,26.07
2022-08-05T04:37:10.844Z,26.11
2022-08-05T04:39:38.043Z,26.14
2022-08-05T04:42:06.876Z,26.18
2022-08-05T04:44:33.978Z,26.25
2022-08-05T04:47:08.899Z,26.29
2022-08-05T04:50:03.002Z,26.32
2022-08-05T04:52:27.798Z,26.37
2022-08-05T04:54:56.910Z,26.47
2022-08-05T04:57:28.422Z,26.55
2022-08-05T04:59:58.471Z,26.66
2022-08-05T05:02:42.010Z,26.77
2022-08-05T05:05:16.813Z,26.93
2022-08-05T05:07:56.466Z,27.18
2022-08-05T05:10:29.598Z,27.60
2022-08-05T05:12:57.417Z,29.14
2022-08-05T05:15:56.422Z,31.20
2022-08-05T05:18:16.585Z,33.16
2022-08-05T05:20:58.767Z,34.66
2022-08-05T05:23:25.951Z,35.38
2022-08-05T05:25:53.153Z,35.10
2022-08-05T05:28:20.701Z,34.03
2022-08-05T05:30:49.777Z,33.02
2022-08-05T05:33:17.713Z,32.23
2022-08-05T05:35:50.823Z,31.44
2022-08-05T05:38:22.843Z,31.46
2022-08-05T05:40:56.177Z,32.11
2022-08-05T05:43:54.454Z,33.67
2022-08-05T05:46:16.156Z,35.64
2022-08-05T05:48:47.996Z,36.62
2022-08-05T05:51:23.522Z,37.23
2022-08-05T05:53:57.883Z,37.95
2022-08-05T05:56:31.514Z,38.25
2022-08-05T05:59:03.199Z,39.21
2022-08-05T06:01:37.811Z,40.02
2022-08-05T06:04:12.168Z,40.11
2022-08-05T06:06:43.115Z,40.07
2022-08-05T06:09:17.667Z,39.30
2022-08-05T06:11:59.623Z,39.27
2022-08-05T06:14:33.302Z,40.03
2022-08-05T06:17:53.093Z,39.89
2022-08-05T06:19:56.649Z,40.54
2022-08-05T06:22:33.327Z,40.92
2022-08-05T06:25:24.692Z,41.47
2022-08-05T06:28:10.657Z,41.11
2022-08-05T06:30:36.742Z,39.39
2022-08-05T06:33:03.972Z,39.59
2022-08-05T06:36:07.538Z,38.65
2022-08-05T06:38:18.504Z,38.67
2022-08-05T06:41:07.906Z,37.85
2022-08-05T06:43:57.957Z,38.64
2022-08-05T06:46:30.341Z,38.26
2022-08-05T06:48:59.894Z,38.51
2022-08-05T06:51:29.974Z,38.20
2022-08-05T06:54:02.071Z,38.13
2022-08-05T06:56:33.342Z,38.19
2022-08-05T06:59:09.712Z,38.42
2022-08-05T07:01:40.873Z,37.45
2022-08-05T07:04:10.019Z,37.64
2022-08-05T07:06:37.329Z,38.16
2022-08-05T07:09:05.007Z,38.16
2022-08-05T07:11:36.920Z,38.09
2022-08-05T07:14:28.972Z,37.84
2022-08-05T07:18:01.975Z,37.78
2022-08-05T07:22:43.088Z,37.53
2022-08-05T07:25:23.621Z,37.99
2022-08-05T07:28:07.236Z,37.78
2022-08-05T07:30:38.448Z,38.11
2022-08-05T07:33:16.510Z,38.13
2022-08-05T07:36:02.115Z,38.11
2022-08-05T07:38:42.641Z,38.05
2022-08-05T07:41:35.006Z,37.81
2022-08-05T07:44:04.166Z,37.42
2022-08-05T07:46:33.801Z,37.55
2022-08-05T07:49:05.824Z,37.45
2022-08-05T07:51:48.538Z,37.31
2022-08-05T07:54:26.424Z,37.13
2022-08-05T07:57:01.603Z,36.91
2022-08-05T07:59:42.056Z,36.74
2022-08-05T08:02:16.608Z,36.33
2022-08-05T08:04:49.399Z,36.19
2022-08-05T08:07:22.792Z,36.25
2022-08-05T08:09:52.259Z,36.34
2022-08-05T08:12:37.350Z,36.50
2022-08-05T08:15:15.818Z,36.42
2022-08-05T08:17:52.355Z,36.32
2022-08-05T08:21:00.515Z,35.91
2022-08-05T08:23:59.798Z,35.76
2022-08-05T08:26:00.329Z,35.65
2022-08-05T08:28:36.530Z,35.41
2022-08-05T08:31:08.060Z,35.32
2022-08-05T08:33:37.901Z,35.20
2022-08-05T08:36:38.496Z,34.98
2022-08-05T08:38:57.798Z,34.87
2022-08-05T08:41:51.119Z,34.90
2022-08-05T08:45:18.731Z,34.78
2022-08-05T08:47:22.181Z,34.82
2022-08-05T08:50:22.299Z,34.69
2022-08-05T08:52:57.054Z,34.52
2022-08-05T08:56:01.979Z,34.38
2022-08-05T08:58:12.943Z,34.09
2022-08-05T09:00:42.463Z,33.79
2022-08-05T09:03:11.555Z,33.39
2022-08-05T09:06:08.628Z,33.42
2022-08-05T09:08:30.104Z,33.29
2022-08-05T09:10:58.763Z,32.93
2022-08-05T09:13:31.466Z,32.74
2022-08-05T09:15:59.794Z,32.38
2022-08-05T09:18:27.732Z,32.12
2022-08-05T09:20:57.311Z,31.63
2022-08-05T09:23:28.793Z,31.13
2022-08-05T09:26:20.612Z,30.89
2022-08-05T09:28:49.670Z,30.74
2022-08-05T09:31:43.796Z,30.45
2022-08-05T09:34:07.303Z,30.36
2022-08-05T09:36:54.767Z,30.40
2022-08-05T09:39:41.148Z,30.36
2022-08-05T09:42:17.477Z,30.41
2022-08-05T09:44:56.157Z,30.47
2022-08-05T09:47:34.953Z,30.63
2022-08-05T09:50:04.379Z,30.46
2022-08-05T09:52:34.170Z,30.40
2022-08-05T09:55:57.337Z,30.70
2022-08-05T09:57:58.442Z,30.96
2022-08-05T10:00:26.483Z,31.09
2022-08-05T10:02:54.952Z,30.90
2022-08-05T10:05:28.424Z,30.94
2022-08-05T10:08:36.630Z,31.03
2022-08-05T10:10:54.288Z,30.97
2022-08-05T10:13:47.475Z,31.10
2022-08-05T10:16:41.796Z,31.22
2022-08-05T10:19:23.813Z,31.35
2022-08-05T10:21:59.872Z,31.28
2022-08-05T10:24:28.605Z,31.25
2022-08-05T10:27:00.599Z,31.36
2022-08-05T10:30:41.348Z,31.28
2022-08-05T10:33:01.293Z,31.09
2022-08-05T10:35:05.442Z,31.00
2022-08-05T10:37:44.379Z,30.91
2022-08-05T10:40:32.095Z,30.77
2022-08-05T10:43:16.477Z,30.86
2022-08-05T10:45:56.515Z,31.01
2022-08-05T10:48:52.357Z,31.00
2022-08-05T10:51:28.879Z,31.34
2022-08-05T10:54:29.930Z,31.31
2022-08-05T10:56:57.782Z,31.40
2022-08-05T11:00:02.043Z,31.35
2022-08-05T11:02:38.422Z,31.36
2022-08-05T11:05:09.520Z,31.06
2022-08-05T11:08:02.816Z,30.69
2022-08-05T11:10:33.371Z,30.68
2022-08-05T11:13:01.436Z,30.77
2022-08-05T11:16:01.392Z,30.96
2022-08-05T11:18:35.481Z,31.24
2022-08-05T11:21:11.262Z,31.28
2022-08-05T11:24:04.418Z,31.22
2022-08-05T11:26:32.963Z,31.16
2022-08-05T11:29:13.357Z,30.98
2022-08-05T11:31:56.231Z,30.72
2022-08-05T11:34:51.032Z,30.54
2022-08-05T11:38:30.297Z,30.69
2022-08-05T11:41:56.223Z,31.00
2022-08-05T11:44:40.247Z,31.41
2022-08-05T11:47:11.181Z,31.61
2022-08-05T11:49:42.758Z,31.66
2022-08-05T11:52:11.347Z,31.77
2022-08-05T11:54:41.374Z,32.15
2022-08-05T11:57:24.807Z,32.17
2022-08-05T11:59:54.556Z,32.35
2022-08-05T12:02:31.451Z,32.28
2022-08-05T12:05:08.049Z,32.14
2022-08-05T12:08:08.179Z,32.04
2022-08-05T12:10:38.621Z,31.87
2022-08-05T12:13:16.920Z,31.68
2022-08-05T12:15:49.842Z,31.69
2022-08-05T12:18:32.767Z,31.91
2022-08-05T12:21:31.946Z,31.73
2022-08-05T12:24:08.419Z,31.47
2022-08-05T12:26:44.096Z,31.51
2022-08-05T12:29:26.341Z,31.60
2022-08-05T12:31:58.579Z,31.66
2022-08-05T12:34:32.966Z,31.50
2022-08-05T12:37:17.359Z,31.44
2022-08-05T12:39:51.301Z,31.52
2022-08-05T12:42:21.025Z,31.61
2022-08-05T12:44:48.695Z,31.76
2022-08-05T12:47:31.943Z,31.84
2022-08-05T12:50:03.698Z,31.91
2022-08-05T12:52:42.435Z,31.91
2022-08-05T12:55:32.464Z,31.61
2022-08-05T12:58:49.782Z,31.58
2022-08-05T13:02:02.921Z,31.64
2022-08-05T13:03:41.388Z,31.73
2022-08-05T13:06:19.985Z,31.95
2022-08-05T13:08:51.643Z,32.02
2022-08-05T13:12:01.920Z,32.07
2022-08-05T13:14:36.325Z,31.98
2022-08-05T13:17:25.036Z,31.95
2022-08-05T13:20:03.122Z,31.86
2022-08-05T13:22:30.746Z,31.64
2022-08-05T13:25:05.815Z,31.52
2022-08-05T13:27:39.347Z,31.57
2022-08-05T13:30:35.644Z,31.52
2022-08-05T13:32:57.461Z,31.47
2022-08-05T13:35:42.603Z,31.64
2022-08-05T13:38:20.071Z,31.64
2022-08-05T13:40:57.615Z,31.52
2022-08-05T13:43:24.764Z,31.41
2022-08-05T13:46:12.458Z,31.31
2022-08-05T13:48:58.711Z,31.25
2022-08-05T13:51:40.142Z,31.07
2022-08-05T13:54:12.012Z,30.89
2022-08-05T13:56:45.282Z,30.66
2022-08-05T13:59:23.797Z,30.56
2022-08-05T14:01:59.122Z,30.46
2022-08-05T14:04:53.882Z,30.39
2022-08-05T14:07:26.113Z,30.47
2022-08-05T14:10:19.254Z,30.47
2022-08-05T14:12:57.011Z,30.45
2022-08-05T14:16:06.275Z,30.46
2022-08-05T14:18:17.547Z,30.52
2022-08-05T14:20:48.174Z,30.50
2022-08-05T14:23:23.758Z,30.54
2022-08-05T14:25:58.718Z,30.56
2022-08-05T14:28:28.514Z,30.57
2022-08-05T14:30:57.864Z,30.60
2022-08-05T14:33:25.276Z,30.54
2022-08-05T14:35:54.369Z,30.51
2022-08-05T14:38:27.692Z,30.51
2022-08-05T14:41:05.980Z,30.53
2022-08-05T14:44:02.318Z,30.56
2022-08-05T14:46:29.023Z,30.56
2022-08-05T14:48:59.662Z,30.48
2022-08-05T14:51:31.923Z,30.41
2022-08-05T14:54:25.925Z,30.37
2022-08-05T14:56:47.533Z,30.34
2022-08-05T14:59:16.739Z,30.31
2022-08-05T15:01:48.012Z,30.31
2022-08-05T15:04:22.378Z,30.28
2022-08-05T15:06:51.541Z,30.22
2022-08-05T15:09:51.224Z,30.18
2022-08-05T15:12:09.489Z,30.23
2022-08-05T15:14:48.437Z,30.19
2022-08-05T15:17:47.025Z,30.04
2022-08-05T15:20:09.757Z,29.97
2022-08-05T15:22:44.849Z,30.06
2022-08-05T15:25:14.323Z,30.24
2022-08-05T15:27:43.038Z,30.37
2022-08-05T15:30:19.554Z,30.49
2022-08-05T15:32:47.117Z,30.60
2022-08-05T15:35:14.893Z,30.59
2022-08-05T15:38:32.353Z,30.54
2022-08-05T15:40:58.614Z,30.65
2022-08-05T15:43:20.563Z,30.77
2022-08-05T15:46:00.790Z,30.77
2022-08-05T15:48:29.050Z,30.72
2022-08-05T15:50:57.008Z,30.74
2022-08-05T15:53:26.607Z,30.74
2022-08-05T15:56:09.080Z,30.74
2022-08-05T15:58:40.775Z,30.73
2022-08-05T16:01:16.331Z,30.73
2022-08-05T16:03:50.865Z,30.63
2022-08-05T16:06:19.932Z,30.63
2022-08-05T16:08:51.132Z,30.62
2022-08-05T16:11:40.135Z,30.67
2022-08-05T16:14:09.140Z,30.65
2022-08-05T16:16:36.581Z,30.75
2022-08-05T16:19:04.466Z,30.76
2022-08-05T16:21:58.449Z,30.86
2022-08-05T16:24:40.407Z,30.89
2022-08-05T16:27:07.378Z,30.84
2022-08-05T16:29:37.073Z,30.69
2022-08-05T16:32:04.661Z,30.67
2022-08-05T16:34:31.862Z,30.69
2022-08-05T16:36:59.212Z,30.60
2022-08-05T16:40:05.991Z,30.55
2022-08-05T16:42:18.498Z,30.46
2022-08-05T16:44:57.101Z,30.32
2022-08-05T16:47:35.961Z,30.23
2022-08-05T16:50:10.474Z,30.02
2022-08-05T16:52:37.885Z,29.95
2022-08-05T16:55:05.384Z,29.96
2022-08-05T16:57:53.109Z,29.96
2022-08-05T17:00:34.109Z,29.97
2022-08-05T17:03:03.645Z,29.88
2022-08-05T17:05:32.121Z,29.78
2022-08-05T17:07:59.281Z,29.71
2022-08-05T17:10:30.470Z,29.71
2022-08-05T17:12:58.377Z,29.67
2022-08-05T17:15:48.010Z,29.59
2022-08-05T17:18:14.224Z,29.43
2022-08-05T17:20:42.311Z,29.33
2022-08-05T17:24:04.636Z,29.18
2022-08-05T17:25:58.917Z,29.04
2022-08-05T17:28:26.432Z,29.01
2022-08-05T17:30:56.265Z,29.04
2022-08-05T17:33:23.645Z,29.10
2022-08-05T17:36:08.024Z,29.10
2022-08-05T17:38:37.440Z,29.06
2022-08-05T17:41:11.624Z,29.08
2022-08-05T17:43:55.176Z,29.10
2022-08-05T17:46:23.912Z,29.06
2022-08-05T17:48:51.005Z,28.97
2022-08-05T17:51:21.452Z,28.88
2022-08-05T17:53:50.736Z,28.84
2022-08-05T17:56:22.719Z,28.75
2022-08-05T17:58:51.153Z,28.73
2022-08-05T18:01:18.949Z,28.72
2022-08-05T18:03:58.596Z,28.62
2022-08-05T18:06:31.115Z,28.61
2022-08-05T18:08:58.698Z,28.62
2022-08-05T18:11:32.996Z,28.61
2022-08-05T18:14:03.214Z,28.60
2022-08-05T18:16:32.246Z,28.62
2022-08-05T18:18:59.609Z,28.72
2022-08-05T18:21:28.717Z,28.82
2022-08-05T18:24:14.479Z,28.82
2022-08-05T18:26:41.971Z,28.87
2022-08-05T18:29:11.128Z,28.91
2022-08-05T18:31:43.126Z,28.91
2022-08-05T18:34:11.960Z,28.91
2022-08-05T18:36:41.129Z,28.90
2022-08-05T18:39:22.361Z,28.94
2022-08-05T18:42:03.739Z,28.95
2022-08-05T18:44:51.700Z,28.91
2022-08-05T18:47:26.634Z,28.90
2022-08-05T18:50:13.472Z,28.88
2022-08-05T18:52:51.007Z,28.87
2022-08-05T18:55:19.995Z,28.87
2022-08-05T18:57:52.625Z,28.88
2022-08-05T19:00:27.090Z,28.88
2022-08-05T19:03:03.671Z,28.88
2022-08-05T19:06:13.287Z,28.86
2022-08-05T19:08:19.220Z,28.79
2022-08-05T19:10:50.512Z,28.75
2022-08-05T19:13:18.221Z,28.75
2022-08-05T19:15:58.977Z,28.82
2022-08-05T19:18:30.577Z,28.89
2022-08-05T19:20:59.837Z,28.91
2022-08-05T19:24:06.839Z,28.86
2022-08-05T19:26:14.871Z,28.82
2022-08-05T19:28:43.866Z,28.82
2022-08-05T19:31:18.050Z,28.83
2022-08-05T19:33:56.886Z,28.82
2022-08-05T19:36:25.937Z,28.80
2022-08-05T19:39:01.077Z,28.79
2022-08-05T19:41:34.648Z,28.74
2022-08-05T19:44:19.042Z,28.74
2022-08-05T19:46:46.867Z,28.73
2022-08-05T19:49:16.929Z,28.74
2022-08-05T19:52:06.121Z,28.75
2022-08-05T19:54:37.070Z,28.69
2022-08-05T19:57:06.395Z,28.65
2022-08-05T19:59:55.916Z,28.62
2022-08-05T20:02:25.901Z,28.61
2022-08-05T20:04:55.001Z,28.54
2022-08-05T20:07:46.854Z,28.47
2022-08-05T20:10:13.143Z,28.38
2022-08-05T20:12:46.208Z,28.33
2022-08-05T20:15:48.907Z,28.28
2022-08-05T20:18:10.951Z,28.24
2022-08-05T20:20:55.149Z,28.24
2022-08-05T20:23:23.864Z,28.24
2022-08-05T20:26:16.248Z,28.22
2022-08-05T20:28:45.868Z,28.17
2022-08-05T20:31:16.516Z,28.14
2022-08-05T20:33:45.098Z,28.14
2022-08-05T20:36:14.295Z,28.13
2022-08-05T20:38:54.563Z,28.15
2022-08-05T20:41:44.358Z,28.19
2022-08-05T20:44:29.857Z,28.23
2022-08-05T20:47:03.971Z,28.23
2022-08-05T20:49:37.891Z,28.21
2022-08-05T20:52:07.320Z,28.17
2022-08-05T20:54:58.926Z,28.13
2022-08-05T20:57:24.614Z,28.07
2022-08-05T21:00:36.397Z,28.05
2022-08-05T21:03:06.308Z,28.05
2022-08-05T21:05:48.199Z,28.05
2022-08-05T21:08:26.816Z,28.06
2022-08-05T21:11:09.846Z,28.03
2022-08-05T21:13:48.008Z,28.06
2022-08-05T21:16:29.793Z,28.04
2022-08-05T21:19:00.361Z,28.05
2022-08-05T21:21:44.149Z,28.06
2022-08-05T21:24:19.564Z,28.07
2022-08-05T21:26:53.326Z,28.07
2022-08-05T21:29:26.626Z,28.10
2022-08-05T21:31:58.908Z,28.10
2022-08-05T21:34:26.150Z,28.11
2022-08-05T21:36:55.546Z,28.08
2022-08-05T21:39:26.897Z,28.04
2022-08-05T21:42:01.594Z,28.01
2022-08-05T21:44:31.047Z,28.03
2022-08-05T21:46:59.695Z,28.08
2022-08-05T21:50:00.059Z,28.09
2022-08-05T21:52:16.526Z,28.04
2022-08-05T21:54:51.890Z,28.00
2022-08-05T21:57:31.246Z,27.93
2022-08-05T22:00:11.389Z,27.87
2022-08-05T22:02:42.931Z,27.85
2022-08-05T22:05:12.208Z,27.82
2022-08-05T22:07:58.270Z,27.81
2022-08-05T22:10:27.578Z,27.80
2022-08-05T22:12:58.829Z,27.78
2022-08-05T22:16:00.852Z,27.79
2022-08-05T22:18:15.149Z,27.81
2022-08-05T22:20:46.865Z,27.82
2022-08-05T22:24:02.095Z,27.81
2022-08-05T22:26:43.342Z,27.77
2022-08-05T22:29:18.740Z,27.76
2022-08-05T22:31:55.221Z,27.76
2022-08-05T22:34:28.729Z,27.77
2022-08-05T22:36:58.307Z,27.78
2022-08-05T22:39:31.139Z,27.76
2022-08-05T22:42:12.287Z,27.72
2022-08-05T22:44:53.512Z,27.64
2022-08-05T22:47:30.084Z,27.57
2022-08-05T22:50:19.630Z,27.53
2022-08-05T22:52:49.990Z,27.47
2022-08-05T22:55:21.277Z,27.41
2022-08-05T22:57:50.458Z,27.39
2022-08-05T23:00:20.907Z,27.38
2022-08-05T23:02:49.417Z,27.34
2022-08-05T23:05:17.469Z,27.29
2022-08-05T23:07:49.566Z,27.31
2022-08-05T23:10:19.888Z,27.31
2022-08-05T23:12:54.273Z,27.29
2022-08-05T23:15:26.865Z,27.25
2022-08-05T23:18:00.485Z,27.19
2022-08-05T23:20:29.130Z,27.17
2022-08-05T23:22:56.627Z,27.12
2022-08-05T23:25:53.094Z,27.07
2022-08-05T23:28:15.872Z,27.03
2022-08-05T23:30:53.054Z,27.00
2022-08-05T23:33:25.646Z,26.98
2022-08-05T23:35:55.831Z,26.96
2022-08-05T23:38:24.558Z,26.95
2022-08-05T23:40:52.779Z,26.93
2022-08-05T23:43:25.554Z,26.96
2022-08-05T23:46:20.800Z,26.98
2022-08-05T23:49:00.412Z,26.99
2022-08-05T23:51:52.655Z,27.00
2022-08-05T23:54:36.487Z,26.99
2022-08-05T23:57:06.853Z,26.97
2022-08-05T23:59:37.668Z,26.96
